Time;durP1;ratioP1;P1;durP2;ratioP2;P2;SDS_P1;SDS_P2;PMS_P1;PMS_P2;Temp;Humidity;BMP_temperature;BMP_pressure;BME280_temperature;BME280_humidity;BME280_pressure;Samples;Min_cycle;Max_cycle;Signal;HPM_P1;HPM_P2
2024/01/19 00:01:42;;;;;;;14.80;7.50;;;;;;;;;;773821;179;919550;-65
2024/01/19 00:04:08;;;;;;;12.17;6.00;;;;;;;;;;780770;179;918535;-65
2024/01/19 00:06:34;;;;;;;11.70;5.97;;;;;;;;;;773336;180;920809;-66
2024/01/19 00:09:00;;;;;;;8.80;6.20;;;;;;;;;;773350;178;917247;-65
2024/01/19 00:11:26;;;;;;;15.43;5.90;;;;;;;;;;761608;180;919049;-66
2024/01/19 00:13:51;;;;;;;8.40;4.87;;;;;;;;;;779136;179;918562;-65
2024/01/19 00:16:18;;;;;;;12.10;6.90;;;;;;;;;;776564;179;917839;-64
2024/01/19 00:18:43;;;;;;;15.37;7.67;;;;;;;;;;779798;180;1018358;-65
2024/01/19 00:21:09;;;;;;;11.40;6.40;;;;;;;;;;784302;180;917855;-64
2024/01/19 00:23:35;;;;;;;12.97;6.90;;;;;;;;;;777330;180;919443;-66
2024/01/19 00:26:01;;;;;;;10.90;7.03;;;;;;;;;;775792;179;917834;-66
2024/01/19 00:28:27;;;;;;;10.23;6.07;;;;;;;;;;780000;179;919328;-65
2024/01/19 00:30:52;;;;;;;10.77;5.55;;;;;;;;;;775279;179;918904;-66
2024/01/19 00:33:18;;;;;;;11.03;4.90;;;;;;;;;;775341;179;946936;-65
2024/01/19 00:35:44;;;;;;;10.80;4.53;;;;;;;;;;771214;179;921276;-65
2024/01/19 00:38:10;;;;;;;11.57;5.67;;;;;;;;;;767742;180;921067;-65
2024/01/19 00:40:36;;;;;;;12.03;7.00;;;;;;;;;;765667;179;919242;-65
2024/01/19 00:43:03;;;;;;;9.40;5.37;;;;;;;;;;767793;177;920299;-65
2024/01/19 00:45:27;;;;;;;9.67;6.00;;;;;;;;;;765344;181;919269;-66
2024/01/19 00:47:53;;;;;;;9.67;5.10;;;;;;;;;;770437;179;1019681;-65
2024/01/19 00:50:19;;;;;;;12.07;6.93;;;;;;;;;;768322;180;919479;-65
2024/01/19 00:52:45;;;;;;;12.53;7.27;;;;;;;;;;776338;180;914724;-65
2024/01/19 00:55:11;;;;;;;12.33;5.77;;;;;;;;;;774206;179;914154;-66
2024/01/19 00:57:37;;;;;;;13.83;5.40;;;;;;;;;;770500;180;919318;-65
2024/01/19 01:00:03;;;;;;;11.53;6.50;;;;;;;;;;779553;180;918983;-65
2024/01/19 01:02:29;;;;;;;11.40;6.80;;;;;;;;;;776515;180;923596;-64
2024/01/19 01:04:54;;;;;;;13.20;7.53;;;;;;;;;;768808;180;918854;-65
2024/01/19 01:07:20;;;;;;;11.33;7.13;;;;;;;;;;770482;180;921310;-66
2024/01/19 01:09:46;;;;;;;12.80;6.97;;;;;;;;;;772546;180;921223;-66
2024/01/19 01:12:12;;;;;;;12.43;7.27;;;;;;;;;;774270;180;920360;-64
2024/01/19 01:14:38;;;;;;;11.90;7.33;;;;;;;;;;770671;179;919562;-64
2024/01/19 01:17:04;;;;;;;12.30;5.80;;;;;;;;;;779718;180;925309;-64
2024/01/19 01:19:29;;;;;;;7.93;5.65;;;;;;;;;;777705;177;917999;-64
2024/01/19 01:21:55;;;;;;;10.07;5.30;;;;;;;;;;778179;179;1018611;-63
2024/01/19 01:24:22;;;;;;;11.30;4.28;;;;;;;;;;763789;180;918368;-64
2024/01/19 01:26:47;;;;;;;8.97;4.10;;;;;;;;;;764928;180;919314;-64
2024/01/19 01:29:13;;;;;;;10.38;4.15;;;;;;;;;;770613;180;919418;-64
2024/01/19 01:31:39;;;;;;;7.78;3.37;;;;;;;;;;780047;180;918423;-65
2024/01/19 01:34:05;;;;;;;7.27;3.90;;;;;;;;;;779852;179;918416;-64
2024/01/19 01:36:31;;;;;;;7.17;4.07;;;;;;;;;;776661;179;920725;-65
2024/01/19 01:38:57;;;;;;;6.57;3.70;;;;;;;;;;769614;179;922114;-64
2024/01/19 01:41:23;;;;;;;9.90;3.80;;;;;;;;;;773723;180;918006;-63
2024/01/19 01:43:48;;;;;;;8.20;3.60;;;;;;;;;;771226;180;919857;-64
2024/01/19 01:46:14;;;;;;;7.90;4.03;;;;;;;;;;757844;180;919187;-63
2024/01/19 01:48:40;;;;;;;5.70;2.83;;;;;;;;;;777072;180;918670;-66
2024/01/19 01:51:06;;;;;;;9.77;4.77;;;;;;;;;;764039;177;919617;-64
2024/01/19 01:53:32;;;;;;;6.60;3.43;;;;;;;;;;770358;180;927155;-63
2024/01/19 01:55:58;;;;;;;9.60;4.70;;;;;;;;;;777685;179;920592;-63
2024/01/19 01:58:23;;;;;;;6.77;4.13;;;;;;;;;;773438;180;949391;-64
2024/01/19 02:00:49;;;;;;;7.22;3.58;;;;;;;;;;769552;179;920749;-64
2024/01/19 02:03:15;;;;;;;11.60;5.27;;;;;;;;;;773540;179;915792;-63
2024/01/19 02:05:41;;;;;;;8.17;4.23;;;;;;;;;;772029;179;913196;-63
2024/01/19 02:08:07;;;;;;;10.37;4.70;;;;;;;;;;775435;179;913023;-63
2024/01/19 02:10:33;;;;;;;8.53;4.27;;;;;;;;;;770462;180;910716;-63
2024/01/19 02:12:59;;;;;;;9.13;4.87;;;;;;;;;;781561;179;910177;-63
2024/01/19 02:15:26;;;;;;;8.80;4.77;;;;;;;;;;772006;180;915833;-63
2024/01/19 02:17:50;;;;;;;12.00;5.40;;;;;;;;;;771266;180;908862;-63
2024/01/19 02:20:16;;;;;;;11.40;4.73;;;;;;;;;;774067;180;905278;-64
2024/01/19 02:22:43;;;;;;;8.43;5.27;;;;;;;;;;770389;180;919217;-64
2024/01/19 02:25:09;;;;;;;12.97;5.07;;;;;;;;;;764864;180;918992;-65
2024/01/19 02:27:35;;;;;;;9.38;6.03;;;;;;;;;;770510;179;919226;-64
2024/01/19 02:30:01;;;;;;;9.23;5.30;;;;;;;;;;767827;181;919507;-64
2024/01/19 02:32:26;;;;;;;13.30;5.60;;;;;;;;;;771825;180;918428;-63
2024/01/19 02:34:52;;;;;;;10.77;5.70;;;;;;;;;;776029;179;916875;-64
2024/01/19 02:37:19;;;;;;;11.17;5.50;;;;;;;;;;774500;179;925947;-64
2024/01/19 02:39:44;;;;;;;10.73;5.65;;;;;;;;;;776513;179;921890;-65
2024/01/19 02:42:10;;;;;;;11.07;6.13;;;;;;;;;;776968;179;917922;-64
2024/01/19 02:44:35;;;;;;;10.07;4.63;;;;;;;;;;781157;178;920658;-63
2024/01/19 02:47:01;;;;;;;14.60;5.57;;;;;;;;;;761492;182;919008;-64
2024/01/19 02:49:27;;;;;;;11.90;6.07;;;;;;;;;;769794;180;922599;-64
2024/01/19 02:51:53;;;;;;;10.70;6.30;;;;;;;;;;778538;179;918386;-64
2024/01/19 02:54:19;;;;;;;9.17;5.10;;;;;;;;;;772902;178;918612;-64
2024/01/19 02:56:45;;;;;;;10.23;6.30;;;;;;;;;;769953;180;955870;-64
2024/01/19 02:59:10;;;;;;;11.70;5.67;;;;;;;;;;772047;179;919910;-64
2024/01/19 03:01:36;;;;;;;11.40;5.43;;;;;;;;;;779016;179;918186;-63
2024/01/19 03:04:02;;;;;;;12.43;5.87;;;;;;;;;;769870;179;919204;-63
2024/01/19 03:06:28;;;;;;;10.27;5.77;;;;;;;;;;776340;179;918167;-63
2024/01/19 03:08:54;;;;;;;9.43;5.40;;;;;;;;;;783769;180;918758;-63
2024/01/19 03:11:20;;;;;;;9.27;5.22;;;;;;;;;;768990;180;922852;-64
2024/01/19 03:13:45;;;;;;;9.53;5.37;;;;;;;;;;758732;180;919761;-64
2024/01/19 03:16:11;;;;;;;15.07;5.73;;;;;;;;;;776021;180;919995;-63
2024/01/19 03:18:37;;;;;;;13.57;6.10;;;;;;;;;;772895;180;918943;-63
2024/01/19 03:21:03;;;;;;;9.57;5.80;;;;;;;;;;774125;180;919159;-62
2024/01/19 03:23:29;;;;;;;9.80;6.30;;;;;;;;;;771068;179;918970;-63
2024/01/19 03:25:55;;;;;;;13.20;7.20;;;;;;;;;;775322;180;918793;-63
2024/01/19 03:28:21;;;;;;;8.13;5.80;;;;;;;;;;774429;180;1021185;-62
2024/01/19 03:30:47;;;;;;;9.07;6.32;;;;;;;;;;771830;180;920407;-64
2024/01/19 03:33:12;;;;;;;8.13;5.17;;;;;;;;;;780554;177;917444;-63
2024/01/19 03:35:38;;;;;;;9.13;5.40;;;;;;;;;;760662;181;919851;-63
2024/01/19 03:38:04;;;;;;;12.40;5.90;;;;;;;;;;769727;180;914704;-63
2024/01/19 03:40:30;;;;;;;12.73;6.80;;;;;;;;;;780257;180;916412;-63
2024/01/19 03:42:56;;;;;;;12.27;6.33;;;;;;;;;;778775;179;919158;-63
2024/01/19 03:45:22;;;;;;;9.63;6.47;;;;;;;;;;778885;178;921569;-63
2024/01/19 03:47:47;;;;;;;16.03;6.63;;;;;;;;;;778032;179;916775;-63
2024/01/19 03:50:13;;;;;;;18.17;9.90;;;;;;;;;;775578;179;918749;-63
2024/01/19 03:52:39;;;;;;;13.50;6.80;;;;;;;;;;776540;179;924752;-62
2024/01/19 03:55:05;;;;;;;18.25;8.85;;;;;;;;;;776800;179;919773;-63
2024/01/19 03:57:31;;;;;;;17.40;9.00;;;;;;;;;;777354;179;918134;-63
2024/01/19 03:59:57;;;;;;;21.43;9.27;;;;;;;;;;770754;179;1035431;-63
2024/01/19 04:02:23;;;;;;;20.00;10.30;;;;;;;;;;773951;179;1020448;-63
2024/01/19 04:04:49;;;;;;;16.87;8.17;;;;;;;;;;776856;180;912367;-63
2024/01/19 04:07:15;;;;;;;12.33;6.43;;;;;;;;;;771251;180;1023811;-64
2024/01/19 04:09:41;;;;;;;14.38;6.75;;;;;;;;;;772436;180;925848;-64
2024/01/19 04:12:17;;;;;;;16.10;7.10;;;;;;;;;;780202;179;916261;-64
2024/01/19 04:14:43;;;;;;;14.00;7.20;;;;;;;;;;773816;179;919165;-63
2024/01/19 04:17:08;;;;;;;11.50;6.25;;;;;;;;;;773763;179;914946;-64
2024/01/19 04:19:34;;;;;;;12.20;7.07;;;;;;;;;;774797;179;915651;-64
2024/01/19 04:22:00;;;;;;;11.50;7.67;;;;;;;;;;775239;180;913783;-65
2024/01/19 04:24:26;;;;;;;17.53;6.93;;;;;;;;;;774783;180;939326;-65
2024/01/19 04:26:52;;;;;;;13.33;6.90;;;;;;;;;;769534;179;916725;-64
2024/01/19 04:29:18;;;;;;;14.50;7.40;;;;;;;;;;778366;179;916461;-64
2024/01/19 04:31:44;;;;;;;13.53;7.47;;;;;;;;;;771129;180;1053640;-65
2024/01/19 04:34:10;;;;;;;17.40;9.37;;;;;;;;;;771859;180;916285;-64
2024/01/19 04:36:35;;;;;;;14.40;7.33;;;;;;;;;;773404;180;914702;-65
2024/01/19 04:39:02;;;;;;;12.60;7.43;;;;;;;;;;773184;180;914934;-63
2024/01/19 04:41:27;;;;;;;17.43;8.17;;;;;;;;;;774745;180;917032;-65
2024/01/19 04:43:53;;;;;;;14.90;8.70;;;;;;;;;;773428;180;919370;-65
2024/01/19 04:46:19;;;;;;;19.07;8.70;;;;;;;;;;775113;180;917314;-64
2024/01/19 04:48:45;;;;;;;17.27;8.83;;;;;;;;;;771390;179;1293056;-65
2024/01/19 04:51:10;;;;;;;17.90;8.60;;;;;;;;;;769587;180;916042;-64
2024/01/19 04:53:36;;;;;;;24.50;11.30;;;;;;;;;;775883;179;915169;-65
2024/01/19 04:56:04;;;;;;;17.43;9.40;;;;;;;;;;778490;179;915483;-64
2024/01/19 04:58:30;;;;;;;15.07;8.93;;;;;;;;;;778607;179;919585;-65
2024/01/19 05:00:56;;;;;;;22.20;9.80;;;;;;;;;;780637;180;920566;-65
2024/01/19 05:03:21;;;;;;;16.53;7.63;;;;;;;;;;774750;179;919207;-64
2024/01/19 05:05:47;;;;;;;20.80;10.43;;;;;;;;;;776299;179;918427;-64
2024/01/19 05:08:13;;;;;;;15.80;8.00;;;;;;;;;;767682;182;913493;-65
2024/01/19 05:10:39;;;;;;;17.83;9.40;;;;;;;;;;766267;180;912532;-65
2024/01/19 05:13:05;;;;;;;19.67;9.73;;;;;;;;;;766255;180;927582;-67
2024/01/19 05:15:31;;;;;;;17.07;10.13;;;;;;;;;;781531;179;922256;-64
2024/01/19 05:17:57;;;;;;;17.37;10.63;;;;;;;;;;783180;179;916029;-65
2024/01/19 05:20:22;;;;;;;14.60;8.87;;;;;;;;;;775186;178;907941;-67
2024/01/19 05:22:48;;;;;;;22.50;10.43;;;;;;;;;;767145;180;919299;-64
2024/01/19 05:25:18;;;;;;;21.70;10.03;;;;;;;;;;769667;180;915468;-65
2024/01/19 05:27:43;;;;;;;23.23;12.53;;;;;;;;;;771686;179;915013;-66
2024/01/19 05:30:09;;;;;;;23.10;11.80;;;;;;;;;;771967;179;927776;-66
2024/01/19 05:32:35;;;;;;;23.87;14.97;;;;;;;;;;769434;180;920441;-66
2024/01/19 05:35:01;;;;;;;22.50;11.67;;;;;;;;;;774349;178;919509;-66
2024/01/19 05:37:26;;;;;;;24.83;13.37;;;;;;;;;;761503;180;920708;-66
2024/01/19 05:39:52;;;;;;;21.03;12.50;;;;;;;;;;774162;179;918119;-66
2024/01/19 05:42:18;;;;;;;16.83;9.27;;;;;;;;;;780892;180;915659;-66
2024/01/19 05:44:45;;;;;;;20.93;12.40;;;;;;;;;;773347;179;922110;-66
2024/01/19 05:47:10;;;;;;;21.27;11.80;;;;;;;;;;769472;180;915484;-66
2024/01/19 05:49:36;;;;;;;22.77;13.17;;;;;;;;;;775019;180;914325;-66
2024/01/19 05:52:01;;;;;;;27.90;11.27;;;;;;;;;;771711;180;930705;-66
2024/01/19 05:54:27;;;;;;;19.33;12.10;;;;;;;;;;772551;179;914452;-66
2024/01/19 05:56:53;;;;;;;19.67;12.50;;;;;;;;;;772761;180;929667;-66
2024/01/19 05:59:19;;;;;;;28.07;11.70;;;;;;;;;;766222;182;913610;-66
2024/01/19 06:01:45;;;;;;;26.00;11.70;;;;;;;;;;762756;179;932917;-65
2024/01/19 06:04:11;;;;;;;24.30;11.90;;;;;;;;;;767971;179;1433227;-66
2024/01/19 06:06:37;;;;;;;22.77;13.30;;;;;;;;;;780811;179;919952;-65
2024/01/19 06:09:02;;;;;;;16.47;10.37;;;;;;;;;;772772;179;949254;-65
2024/01/19 06:11:28;;;;;;;31.83;12.97;;;;;;;;;;775341;179;919258;-65
2024/01/19 06:13:54;;;;;;;19.30;10.73;;;;;;;;;;773949;179;919693;-65
2024/01/19 06:16:20;;;;;;;25.20;15.10;;;;;;;;;;771310;179;914855;-65
2024/01/19 06:18:46;;;;;;;29.83;15.43;;;;;;;;;;775424;179;916848;-65
2024/01/19 06:21:12;;;;;;;19.40;12.47;;;;;;;;;;775581;180;896106;-66
2024/01/19 06:23:39;;;;;;;25.67;14.00;;;;;;;;;;774124;180;918492;-64
2024/01/19 06:26:08;;;;;;;27.93;15.47;;;;;;;;;;771351;180;919213;-66
2024/01/19 06:28:34;;;;;;;24.92;14.00;;;;;;;;;;774707;180;1020412;-65
2024/01/19 06:31:00;;;;;;;26.33;14.90;;;;;;;;;;782007;179;921199;-66
2024/01/19 06:33:25;;;;;;;23.97;14.37;;;;;;;;;;773495;177;905048;-65
2024/01/19 06:35:52;;;;;;;33.87;15.00;;;;;;;;;;762646;183;1025035;-65
2024/01/19 06:38:17;;;;;;;25.67;14.27;;;;;;;;;;777513;179;919008;-66
2024/01/19 06:40:43;;;;;;;24.80;13.23;;;;;;;;;;774659;179;919414;-66
2024/01/19 06:43:09;;;;;;;28.40;16.20;;;;;;;;;;776853;179;920201;-65
2024/01/19 06:45:35;;;;;;;27.58;13.80;;;;;;;;;;776486;179;922259;-65
2024/01/19 06:48:01;;;;;;;25.13;13.20;;;;;;;;;;775761;180;911412;-65
2024/01/19 06:50:27;;;;;;;25.10;13.17;;;;;;;;;;770384;180;976832;-66
2024/01/19 06:52:53;;;;;;;30.23;15.67;;;;;;;;;;771145;180;1090683;-65
2024/01/19 06:55:18;;;;;;;33.17;16.65;;;;;;;;;;777315;180;921214;-65
2024/01/19 06:57:44;;;;;;;27.87;16.10;;;;;;;;;;770181;180;914119;-67
2024/01/19 07:00:10;;;;;;;26.40;15.07;;;;;;;;;;771746;180;868711;-66
2024/01/19 07:02:37;;;;;;;31.43;15.40;;;;;;;;;;780452;180;934777;-65
2024/01/19 07:05:03;;;;;;;26.83;14.77;;;;;;;;;;775444;180;915990;-66
2024/01/19 07:07:28;;;;;;;25.13;14.90;;;;;;;;;;764291;180;932281;-65
2024/01/19 07:09:54;;;;;;;27.27;13.80;;;;;;;;;;782646;180;635015;-68
2024/01/19 07:12:20;;;;;;;24.03;13.67;;;;;;;;;;771141;179;924343;-65
2024/01/19 07:14:46;;;;;;;30.10;14.87;;;;;;;;;;769923;179;909113;-66
2024/01/19 07:17:12;;;;;;;29.40;15.90;;;;;;;;;;775460;178;921977;-66
2024/01/19 07:19:38;;;;;;;38.87;17.67;;;;;;;;;;778815;179;909320;-66
2024/01/19 07:22:04;;;;;;;30.13;17.07;;;;;;;;;;776151;179;1116996;-65
2024/01/19 07:24:32;;;;;;;27.00;15.25;;;;;;;;;;777941;179;911570;-66
2024/01/19 07:26:55;;;;;;;27.70;15.93;;;;;;;;;;780915;179;911836;-65
2024/01/19 07:29:21;;;;;;;28.57;15.73;;;;;;;;;;773395;179;916618;-65
2024/01/19 07:31:47;;;;;;;24.30;14.70;;;;;;;;;;774543;180;907665;-66
2024/01/19 07:34:13;;;;;;;36.37;14.70;;;;;;;;;;778744;180;919127;-65
2024/01/19 07:36:39;;;;;;;28.00;14.50;;;;;;;;;;775150;179;919457;-66
2024/01/19 07:39:04;;;;;;;25.97;14.93;;;;;;;;;;775909;180;919560;-65
2024/01/19 07:41:31;;;;;;;30.00;16.40;;;;;;;;;;778710;180;1020010;-66
2024/01/19 07:43:57;;;;;;;27.77;15.67;;;;;;;;;;776887;179;918203;-65
2024/01/19 07:46:23;;;;;;;26.87;15.43;;;;;;;;;;773773;179;816098;-66
2024/01/19 07:48:48;;;;;;;32.08;18.55;;;;;;;;;;774082;179;1021606;-66
2024/01/19 07:51:14;;;;;;;34.33;17.07;;;;;;;;;;766703;181;614633;-66
2024/01/19 07:53:40;;;;;;;34.10;17.67;;;;;;;;;;773625;180;919524;-66
2024/01/19 07:56:06;;;;;;;29.27;16.67;;;;;;;;;;778173;177;657804;-65
2024/01/19 07:58:32;;;;;;;28.67;18.07;;;;;;;;;;765931;181;918570;-66
2024/01/19 08:00:58;;;;;;;34.60;17.93;;;;;;;;;;769829;179;919075;-66
2024/01/19 08:03:25;;;;;;;27.40;16.90;;;;;;;;;;769545;180;1021942;-66
2024/01/19 08:05:49;;;;;;;37.00;19.27;;;;;;;;;;777174;180;617385;-66
2024/01/19 08:08:15;;;;;;;29.77;16.70;;;;;;;;;;774413;179;919461;-67
2024/01/19 08:10:41;;;;;;;27.93;15.53;;;;;;;;;;773567;180;631726;-65
2024/01/19 08:13:07;;;;;;;31.87;17.30;;;;;;;;;;777587;179;658060;-67
2024/01/19 08:15:33;;;;;;;40.97;17.50;;;;;;;;;;782269;179;647253;-66
2024/01/19 08:17:59;;;;;;;27.37;17.40;;;;;;;;;;777567;179;918692;-66
2024/01/19 08:20:25;;;;;;;29.37;14.83;;;;;;;;;;770769;180;920883;-66
2024/01/19 08:22:53;;;;;;;27.13;16.10;;;;;;;;;;778772;180;918262;-66
2024/01/19 08:25:17;;;;;;;25.60;14.80;;;;;;;;;;771716;180;997556;-66
2024/01/19 08:27:42;;;;;;;26.77;14.90;;;;;;;;;;779225;180;656089;-66
2024/01/19 08:30:08;;;;;;;38.50;18.97;;;;;;;;;;785370;178;614802;-67
2024/01/19 08:32:35;;;;;;;31.70;18.90;;;;;;;;;;778019;179;1059566;-66
2024/01/19 08:35:00;;;;;;;35.93;19.40;;;;;;;;;;780297;179;638282;-66
2024/01/19 08:37:26;;;;;;;27.07;15.80;;;;;;;;;;780645;178;651980;-67
2024/01/19 08:39:52;;;;;;;26.37;15.77;;;;;;;;;;776906;179;666412;-67
2024/01/19 08:42:18;;;;;;;27.23;15.77;;;;;;;;;;777897;179;624603;-67
2024/01/19 08:44:44;;;;;;;50.93;28.80;;;;;;;;;;772846;180;628490;-67
2024/01/19 08:47:10;;;;;;;33.77;19.77;;;;;;;;;;771528;180;668186;-67
2024/01/19 08:49:36;;;;;;;35.27;18.70;;;;;;;;;;778633;179;691638;-66
2024/01/19 08:52:02;;;;;;;40.20;22.80;;;;;;;;;;777170;179;919119;-65
2024/01/19 08:54:28;;;;;;;35.97;18.10;;;;;;;;;;778446;180;933918;-67
2024/01/19 08:56:54;;;;;;;42.63;21.83;;;;;;;;;;767466;180;934829;-67
2024/01/19 08:59:19;;;;;;;33.20;20.50;;;;;;;;;;774527;180;917358;-66
2024/01/19 09:01:45;;;;;;;38.37;20.23;;;;;;;;;;771356;180;627184;-67
2024/01/19 09:04:11;;;;;;;30.73;19.40;;;;;;;;;;771349;181;633080;-69
2024/01/19 09:06:37;;;;;;;31.07;17.20;;;;;;;;;;777742;179;625575;-67
2024/01/19 09:09:03;;;;;;;34.60;17.30;;;;;;;;;;778662;179;638895;-67
2024/01/19 09:11:29;;;;;;;28.00;13.93;;;;;;;;;;778604;181;623444;-67
2024/01/19 09:13:55;;;;;;;38.13;17.27;;;;;;;;;;772993;179;911869;-68
2024/01/19 09:16:21;;;;;;;34.20;18.50;;;;;;;;;;755973;181;918261;-68
2024/01/19 09:18:46;;;;;;;30.65;14.90;;;;;;;;;;782035;180;919454;-67
2024/01/19 09:21:16;;;;;;;26.43;14.70;;;;;;;;;;770859;180;920594;-69
2024/01/19 09:23:41;;;;;;;15.23;8.70;;;;;;;;;;778870;179;626898;-67
2024/01/19 09:26:07;;;;;;;24.02;12.35;;;;;;;;;;776308;180;629319;-67
2024/01/19 09:28:33;;;;;;;22.03;11.73;;;;;;;;;;773640;181;636885;-67
2024/01/19 09:30:59;;;;;;;21.37;11.53;;;;;;;;;;764198;180;919657;-67
2024/01/19 09:33:25;;;;;;;21.67;11.00;;;;;;;;;;775568;180;914252;-68
2024/01/19 09:35:51;;;;;;;21.23;9.70;;;;;;;;;;781318;180;917848;-68
2024/01/19 09:38:16;;;;;;;19.30;11.43;;;;;;;;;;774574;180;628396;-68
2024/01/19 09:40:45;;;;;;;19.87;11.63;;;;;;;;;;774729;179;925735;-68
2024/01/19 09:43:08;;;;;;;17.70;11.40;;;;;;;;;;780048;179;919848;-67
2024/01/19 09:45:37;;;;;;;22.43;12.20;;;;;;;;;;775430;179;917910;-68
2024/01/19 09:48:03;;;;;;;10.07;6.83;;;;;;;;;;771552;179;922047;-68
2024/01/19 09:50:28;;;;;;;22.57;13.37;;;;;;;;;;775049;179;922908;-67
2024/01/19 09:52:59;;;;;;;27.23;13.45;;;;;;;;;;775034;180;920455;-68
2024/01/19 09:55:25;;;;;;;19.83;12.33;;;;;;;;;;764489;180;918214;-67
2024/01/19 09:57:50;;;;;;;20.70;12.60;;;;;;;;;;761218;180;914309;-67
2024/01/19 10:00:17;;;;;;;9.10;6.70;;;;;;;;;;781301;179;1013042;-68
2024/01/19 10:02:42;;;;;;;42.50;18.47;;;;;;;;;;777603;179;916945;-67
2024/01/19 10:05:08;;;;;;;152.17;48.23;;;;;;;;;;776373;179;914035;-67
2024/01/19 10:07:34;;;;;;;122.03;49.63;;;;;;;;;;772640;180;919895;-68
2024/01/19 10:10:00;;;;;;;57.33;30.20;;;;;;;;;;763011;176;969718;-68
2024/01/19 10:12:25;;;;;;;50.37;24.60;;;;;;;;;;767376;179;942570;-68
2024/01/19 10:14:51;;;;;;;40.73;20.47;;;;;;;;;;775962;180;934355;-68
2024/01/19 10:17:17;;;;;;;61.08;31.42;;;;;;;;;;778593;180;910052;-69
2024/01/19 10:19:43;;;;;;;33.40;16.03;;;;;;;;;;775325;179;918757;-69
2024/01/19 10:22:15;;;;;;;26.23;13.83;;;;;;;;;;774966;179;917073;-68
2024/01/19 10:24:41;;;;;;;33.67;15.70;;;;;;;;;;775051;180;919921;-68
2024/01/19 10:27:06;;;;;;;36.53;19.12;;;;;;;;;;773518;180;913542;-67
2024/01/19 10:29:32;;;;;;;26.37;17.80;;;;;;;;;;771532;179;924294;-68
2024/01/19 10:31:58;;;;;;;24.20;14.43;;;;;;;;;;773353;180;909228;-68
2024/01/19 10:34:26;;;;;;;52.83;21.37;;;;;;;;;;779856;180;933770;-68
2024/01/19 10:36:50;;;;;;;28.17;17.40;;;;;;;;;;758224;183;816889;-68
2024/01/19 10:39:16;;;;;;;96.33;39.50;;;;;;;;;;771220;179;920332;-68
2024/01/19 10:41:43;;;;;;;26.83;15.98;;;;;;;;;;775410;179;915794;-67
2024/01/19 10:44:09;;;;;;;27.17;17.00;;;;;;;;;;766839;180;916972;-69
2024/01/19 10:46:35;;;;;;;27.63;13.90;;;;;;;;;;773565;180;976180;-69
2024/01/19 10:49:03;;;;;;;29.50;15.47;;;;;;;;;;780066;179;910633;-70
2024/01/19 10:51:30;;;;;;;22.53;12.50;;;;;;;;;;775328;178;911403;-70
2024/01/19 10:53:55;;;;;;;19.80;11.50;;;;;;;;;;779342;179;909551;-70
2024/01/19 10:56:21;;;;;;;23.60;12.80;;;;;;;;;;773630;179;914134;-69
2024/01/19 10:58:47;;;;;;;25.40;12.87;;;;;;;;;;784869;179;917504;-70
2024/01/19 11:01:14;;;;;;;17.60;11.50;;;;;;;;;;775598;179;911685;-70
2024/01/19 11:03:39;;;;;;;43.80;25.80;;;;;;;;;;777301;179;912598;-69
2024/01/19 11:06:05;;;;;;;23.60;12.77;;;;;;;;;;781201;179;819221;-70
2024/01/19 11:08:31;;;;;;;31.77;15.27;;;;;;;;;;772136;180;922125;-70
2024/01/19 11:10:56;;;;;;;26.95;14.98;;;;;;;;;;774702;179;914466;-70
2024/01/19 11:13:22;;;;;;;22.83;11.20;;;;;;;;;;779580;180;921655;-70
2024/01/19 11:15:50;;;;;;;31.73;16.13;;;;;;;;;;774823;178;909105;-70
2024/01/19 11:18:15;;;;;;;23.67;13.25;;;;;;;;;;760134;182;1014070;-70
2024/01/19 11:20:40;;;;;;;23.30;12.20;;;;;;;;;;771165;179;1124876;-70
2024/01/19 11:23:06;;;;;;;18.20;10.77;;;;;;;;;;774280;181;1021094;-70
2024/01/19 11:25:36;;;;;;;18.43;11.47;;;;;;;;;;775132;179;918689;-69
2024/01/19 11:28:04;;;;;;;22.45;11.75;;;;;;;;;;776181;177;920553;-71
2024/01/19 11:30:33;;;;;;;26.33;13.80;;;;;;;;;;775712;180;908515;-69
2024/01/19 11:32:58;;;;;;;29.93;14.00;;;;;;;;;;776348;180;909774;-69
2024/01/19 11:35:30;;;;;;;27.27;13.50;;;;;;;;;;771615;179;881807;-71
2024/01/19 11:37:56;;;;;;;24.23;12.15;;;;;;;;;;772483;180;908286;-70
2024/01/19 11:40:39;;;;;;;24.27;10.87;;;;;;;;;;781610;180;628920;-70
2024/01/19 11:43:05;;;;;;;16.45;11.38;;;;;;;;;;778530;179;920090;-70
2024/01/19 11:45:40;;;;;;;27.57;12.97;;;;;;;;;;765784;180;903289;-70
2024/01/19 11:48:05;;;;;;;24.47;11.13;;;;;;;;;;769038;180;904427;-69
2024/01/19 11:50:37;;;;;;;18.60;11.60;;;;;;;;;;772769;180;913420;-71
2024/01/19 11:53:03;;;;;;;19.17;10.80;;;;;;;;;;782869;180;633563;-70
2024/01/19 11:55:36;;;;;;;22.37;12.53;;;;;;;;;;771817;180;918247;-69
2024/01/19 11:58:08;;;;;;;21.00;11.30;;;;;;;;;;774429;180;932720;-70
2024/01/19 12:00:34;;;;;;;27.23;10.37;;;;;;;;;;772047;180;811215;-70
2024/01/19 12:03:01;;;;;;;20.77;11.53;;;;;;;;;;776793;179;1007591;-69
2024/01/19 12:05:27;;;;;;;20.83;11.30;;;;;;;;;;774934;179;913652;-70
2024/01/19 12:07:59;;;;;;;18.90;11.27;;;;;;;;;;774343;179;912190;-70
2024/01/19 12:10:25;;;;;;;17.77;10.47;;;;;;;;;;779831;176;658199;-69
2024/01/19 12:12:51;;;;;;;17.47;11.60;;;;;;;;;;766942;180;914647;-68
2024/01/19 12:15:17;;;;;;;22.03;11.37;;;;;;;;;;765069;180;913705;-69
2024/01/19 12:17:44;;;;;;;15.27;10.97;;;;;;;;;;774642;179;909357;-69
2024/01/19 12:20:09;;;;;;;21.77;11.50;;;;;;;;;;777146;179;910238;-69
2024/01/19 12:22:35;;;;;;;29.00;13.10;;;;;;;;;;778285;179;923216;-69
2024/01/19 12:25:06;;;;;;;24.90;11.50;;;;;;;;;;773531;180;918431;-70
2024/01/19 12:27:32;;;;;;;15.73;10.03;;;;;;;;;;781306;179;915723;-69
2024/01/19 12:29:58;;;;;;;23.23;12.07;;;;;;;;;;781303;179;914956;-68
2024/01/19 12:32:24;;;;;;;19.37;11.60;;;;;;;;;;773896;180;649001;-69
2024/01/19 12:35:01;;;;;;;22.47;11.97;;;;;;;;;;781375;179;917587;-67
2024/01/19 12:37:25;;;;;;;26.90;11.90;;;;;;;;;;774398;180;620028;-70
2024/01/19 12:39:51;;;;;;;18.10;11.17;;;;;;;;;;780228;179;616955;-69
2024/01/19 12:42:17;;;;;;;19.43;10.90;;;;;;;;;;768128;180;784440;-68
2024/01/19 12:44:43;;;;;;;20.73;12.87;;;;;;;;;;772674;180;627140;-68
2024/01/19 12:47:08;;;;;;;21.20;11.90;;;;;;;;;;779313;179;918994;-68
2024/01/19 12:49:34;;;;;;;19.00;10.80;;;;;;;;;;773156;180;918607;-68
2024/01/19 12:52:00;;;;;;;20.60;11.90;;;;;;;;;;774931;179;919520;-69
2024/01/19 12:54:26;;;;;;;18.17;11.10;;;;;;;;;;777155;180;647833;-68
2024/01/19 12:56:53;;;;;;;16.83;8.83;;;;;;;;;;765659;181;621349;-67
2024/01/19 12:59:19;;;;;;;10.17;7.10;;;;;;;;;;752845;185;619213;-68
2024/01/19 13:01:45;;;;;;;13.70;8.23;;;;;;;;;;772775;179;918579;-67
2024/01/19 13:04:11;;;;;;;13.90;8.37;;;;;;;;;;777966;180;667584;-67
2024/01/19 13:06:47;;;;;;;16.03;9.37;;;;;;;;;;777829;179;626699;-67
2024/01/19 13:09:14;;;;;;;16.00;9.67;;;;;;;;;;773064;180;917914;-67
2024/01/19 13:11:40;;;;;;;13.20;8.10;;;;;;;;;;774265;180;919134;-67
2024/01/19 13:14:06;;;;;;;16.77;9.47;;;;;;;;;;763994;183;916942;-68
2024/01/19 13:16:32;;;;;;;17.57;10.30;;;;;;;;;;775215;179;917050;-68
2024/01/19 13:19:01;;;;;;;18.20;10.30;;;;;;;;;;773050;179;918167;-66
2024/01/19 13:21:27;;;;;;;16.20;9.57;;;;;;;;;;775848;177;919133;-67
2024/01/19 13:23:53;;;;;;;16.80;10.35;;;;;;;;;;765174;180;920738;-67
2024/01/19 13:26:19;;;;;;;21.33;11.20;;;;;;;;;;775947;179;914700;-68
2024/01/19 13:28:45;;;;;;;19.93;10.50;;;;;;;;;;772037;180;917026;-67
2024/01/19 13:31:10;;;;;;;17.90;11.50;;;;;;;;;;767685;181;920172;-66
2024/01/19 13:33:38;;;;;;;20.00;12.03;;;;;;;;;;768793;180;917115;-66
2024/01/19 13:36:03;;;;;;;23.00;11.93;;;;;;;;;;770631;179;916991;-67
2024/01/19 13:38:28;;;;;;;22.37;12.90;;;;;;;;;;775843;181;920891;-66
2024/01/19 13:40:54;;;;;;;20.87;12.97;;;;;;;;;;774597;179;917681;-65
2024/01/19 13:43:20;;;;;;;22.63;11.90;;;;;;;;;;770725;180;1017783;-65
2024/01/19 13:45:46;;;;;;;22.70;12.07;;;;;;;;;;776818;179;1023455;-66
2024/01/19 13:48:11;;;;;;;27.30;13.90;;;;;;;;;;766563;179;901805;-66
2024/01/19 13:50:37;;;;;;;22.77;14.02;;;;;;;;;;769143;180;919038;-66
2024/01/19 13:53:04;;;;;;;18.15;11.63;;;;;;;;;;775970;180;919347;-66
2024/01/19 13:55:30;;;;;;;21.43;13.07;;;;;;;;;;761969;183;919740;-65
2024/01/19 13:57:55;;;;;;;21.80;10.53;;;;;;;;;;777297;180;920904;-65
2024/01/19 14:00:21;;;;;;;18.50;9.90;;;;;;;;;;773469;180;921487;-65
2024/01/19 14:02:47;;;;;;;22.23;11.73;;;;;;;;;;778852;180;919014;-65
2024/01/19 14:05:13;;;;;;;17.60;10.20;;;;;;;;;;772488;179;919505;-65